Christian & Alexa — WAA4721 — position and weather

sailwx.info

Track history (hours):
 
Tides and Currents Weather Stations Pressure Air Temp Water Temp Dewpoint Dewpoint Depression Visibility Wind Speed Wind Dir Waves Ship Positions

Christian & Alexa

Owner: TRAWLER DIANNE & MAUREEN INC, BELMAR, NJ. More information available from US FCC via Universal Licensing System and Coast Guard Vessel Documentation Center.

Last reported at 2015-Aug-01 02:30 UTC. Time now 2015-Aug-01 20:20 UTC.
Position N 40°44' W 072°03'.

Length 30 m.

Type: Fishing. MMSI: 366939620.

Date/timePositionNaut miles runAvg speedWind from/ knotsBaromVisibWave heightAir tempDewpointWater temp
2015-Aug-01 02:30N 40°44' W 072°03'35 1.0
2015-Jul-30 15:29N 40°16' W 072°30'0 0.4
2015-Jul-30 14:33N 40°16' W 072°30'0 0.2
2015-Jul-30 13:32N 40°16' W 072°30'0 0.1
2015-Jul-30 12:33N 40°16' W 072°30'0 0.1
2015-Jul-30 11:32N 40°16' W 072°30'1 0.8
2015-Jul-30 10:28N 40°16' W 072°31'0 0.5
2015-Jul-30 09:33N 40°17' W 072°31'0 0.1
2015-Jul-30 08:32N 40°17' W 072°31'1 0.1
2015-Jul-30 00:33N 40°17' W 072°30'1 0.7
2015-Jul-29 23:34N 40°17' W 072°31'4 4.5
2015-Jul-29 22:33N 40°12' W 072°31'10 0.7
2015-Jul-29 09:14N 40°04' W 072°24'2 2.8
2015-Jul-29 08:33N 40°06' W 072°23'1 1.4
2015-Jul-29 07:33N 40°05' W 072°25'2 1.6
2015-Jul-29 06:33N 40°07' W 072°24'3 3.3
2015-Jul-29 05:33N 40°04' W 072°26'4 4.2
2015-Jul-29 04:33N 40°01' W 072°31'3 2.7
2015-Jul-29 03:33N 39°59' W 072°32'0 0.0
2015-Jul-29 02:34N 39°59' W 072°32'0 0.1
2015-Jul-29 01:33N 39°59' W 072°32'0 0.3
2015-Jul-29 00:33N 39°59' W 072°32'0 0.1
2015-Jul-28 23:33N 39°59' W 072°32'0 0.4
2015-Jul-28 22:33N 39°59' W 072°32'2 2.1
2015-Jul-28 21:33N 39°57' W 072°33'2 2.1
2015-Jul-28 20:23N 39°60' W 072°32'3 1.1
2015-Jul-28 17:20N 39°56' W 072°33'1 1.8
2015-Jul-28 16:33N 39°58' W 072°33'7 0.8
2015-Jul-28 08:17N 39°52' W 072°30'1 1.7
2015-Jul-28 07:33N 39°53' W 072°29'4 4.2
2015-Jul-28 06:33N 39°49' W 072°31'  
Track history (hours):
 
Tides and Currents Weather Stations Pressure Air Temp Water Temp Dewpoint Dewpoint Depression Visibility Wind Speed Wind Dir Waves Ship Positions

Christian & Alexa

Owner: TRAWLER DIANNE & MAUREEN INC, BELMAR, NJ. More information available from US FCC via Universal Licensing System and Coast Guard Vessel Documentation Center.

Last reported at 2015-Aug-01 02:30 UTC. Time now 2015-Aug-01 20:20 UTC.
Position N 40°44' W 072°03'.

Length 30 m.

Type: Fishing. MMSI: 366939620.

Date/timePositionNaut miles runAvg speedWind from/ knotsBaromVisibWave heightAir tempDewpointWater temp
2015-Aug-01 02:30N 40°44' W 072°03'35 1.0
2015-Jul-30 15:29N 40°16' W 072°30'0 0.4
2015-Jul-30 14:33N 40°16' W 072°30'0 0.2
2015-Jul-30 13:32N 40°16' W 072°30'0 0.1
2015-Jul-30 12:33N 40°16' W 072°30'0 0.1
2015-Jul-30 11:32N 40°16' W 072°30'1 0.8
2015-Jul-30 10:28N 40°16' W 072°31'0 0.5
2015-Jul-30 09:33N 40°17' W 072°31'0 0.1
2015-Jul-30 08:32N 40°17' W 072°31'1 0.1
2015-Jul-30 00:33N 40°17' W 072°30'1 0.7
2015-Jul-29 23:34N 40°17' W 072°31'4 4.5
2015-Jul-29 22:33N 40°12' W 072°31'10 0.7
2015-Jul-29 09:14N 40°04' W 072°24'2 2.8
2015-Jul-29 08:33N 40°06' W 072°23'1 1.4
2015-Jul-29 07:33N 40°05' W 072°25'2 1.6
2015-Jul-29 06:33N 40°07' W 072°24'3 3.3
2015-Jul-29 05:33N 40°04' W 072°26'4 4.2
2015-Jul-29 04:33N 40°01' W 072°31'3 2.7
2015-Jul-29 03:33N 39°59' W 072°32'0 0.0
2015-Jul-29 02:34N 39°59' W 072°32'0 0.1
2015-Jul-29 01:33N 39°59' W 072°32'0 0.3
2015-Jul-29 00:33N 39°59' W 072°32'0 0.1
2015-Jul-28 23:33N 39°59' W 072°32'0 0.4
2015-Jul-28 22:33N 39°59' W 072°32'2 2.1
2015-Jul-28 21:33N 39°57' W 072°33'2 2.1
2015-Jul-28 20:23N 39°60' W 072°32'3 1.1
2015-Jul-28 17:20N 39°56' W 072°33'1 1.8
2015-Jul-28 16:33N 39°58' W 072°33'7 0.8
2015-Jul-28 08:17N 39°52' W 072°30'1 1.7
2015-Jul-28 07:33N 39°53' W 072°29'4 4.2
2015-Jul-28 06:33N 39°49' W 072°31'  

Dump ship's entire track history